sensor_id;sensor_type;location;lat;lon;timestamp;P1;durP1;ratioP1;P2;durP2;ratioP2
7199;SDS011;3641;49.082;8.200;2022-08-03T00:00:50;6.25;;;3.55;;
7199;SDS011;3641;49.082;8.200;2022-08-03T00:03:16;6.68;;;3.67;;
7199;SDS011;3641;49.082;8.200;2022-08-03T00:05:43;9.45;;;4.40;;
7199;SDS011;3641;49.082;8.200;2022-08-03T00:08:09;5.03;;;3.80;;
7199;SDS011;3641;49.082;8.200;2022-08-03T00:10:36;5.65;;;3.60;;
7199;SDS011;3641;49.082;8.200;2022-08-03T00:13:03;5.38;;;3.90;;
7199;SDS011;3641;49.082;8.200;2022-08-03T00:15:29;6.65;;;3.97;;
7199;SDS011;3641;49.082;8.200;2022-08-03T00:17:57;7.75;;;4.70;;
7199;SDS011;3641;49.082;8.200;2022-08-03T00:20:24;6.53;;;3.80;;
7199;SDS011;3641;49.082;8.200;2022-08-03T00:22:50;5.80;;;4.03;;
7199;SDS011;3641;49.082;8.200;2022-08-03T00:25:17;6.22;;;4.13;;
7199;SDS011;3641;49.082;8.200;2022-08-03T00:27:44;6.40;;;3.50;;
7199;SDS011;3641;49.082;8.200;2022-08-03T00:30:10;6.20;;;3.92;;
7199;SDS011;3641;49.082;8.200;2022-08-03T00:32:37;7.90;;;3.83;;
7199;SDS011;3641;49.082;8.200;2022-08-03T00:35:05;5.93;;;3.60;;
7199;SDS011;3641;49.082;8.200;2022-08-03T00:37:32;5.50;;;3.65;;
7199;SDS011;3641;49.082;8.200;2022-08-03T00:39:59;7.43;;;3.90;;
7199;SDS011;3641;49.082;8.200;2022-08-03T00:42:25;4.88;;;3.90;;
7199;SDS011;3641;49.082;8.200;2022-08-03T00:44:52;5.32;;;4.00;;
7199;SDS011;3641;49.082;8.200;2022-08-03T00:47:18;5.30;;;4.07;;
7199;SDS011;3641;49.082;8.200;2022-08-03T00:49:45;6.13;;;4.28;;
7199;SDS011;3641;49.082;8.200;2022-08-03T00:52:13;9.65;;;4.53;;
7199;SDS011;3641;49.082;8.200;2022-08-03T00:54:41;7.13;;;3.70;;
7199;SDS011;3641;49.082;8.200;2022-08-03T00:57:07;8.95;;;4.05;;
7199;SDS011;3641;49.082;8.200;2022-08-03T00:59:34;6.45;;;3.85;;
7199;SDS011;3641;49.082;8.200;2022-08-03T01:02:02;6.15;;;3.78;;
7199;SDS011;3641;49.082;8.200;2022-08-03T01:04:28;6.47;;;4.05;;
7199;SDS011;3641;49.082;8.200;2022-08-03T01:06:57;7.40;;;3.75;;
7199;SDS011;3641;49.082;8.200;2022-08-03T01:09:34;5.15;;;3.78;;
7199;SDS011;3641;49.082;8.200;2022-08-03T01:12:07;4.32;;;3.80;;
7199;SDS011;3641;49.082;8.200;2022-08-03T01:14:41;8.02;;;4.28;;
7199;SDS011;3641;49.082;8.200;2022-08-03T01:17:18;7.85;;;4.30;;
7199;SDS011;3641;49.082;8.200;2022-08-03T01:19:53;8.93;;;4.00;;
7199;SDS011;3641;49.082;8.200;2022-08-03T01:22:33;8.85;;;4.57;;
7199;SDS011;3641;49.082;8.200;2022-08-03T01:25:13;7.30;;;4.00;;
7199;SDS011;3641;49.082;8.200;2022-08-03T01:27:50;8.95;;;4.20;;
7199;SDS011;3641;49.082;8.200;2022-08-03T01:30:24;9.32;;;3.90;;
7199;SDS011;3641;49.082;8.200;2022-08-03T01:32:56;6.93;;;4.20;;
7199;SDS011;3641;49.082;8.200;2022-08-03T01:35:27;11.05;;;4.10;;
7199;SDS011;3641;49.082;8.200;2022-08-03T01:37:59;9.30;;;4.22;;
7199;SDS011;3641;49.082;8.200;2022-08-03T01:40:30;8.35;;;3.80;;
7199;SDS011;3641;49.082;8.200;2022-08-03T01:42:59;5.78;;;3.75;;
7199;SDS011;3641;49.082;8.200;2022-08-03T01:45:30;4.75;;;3.55;;
7199;SDS011;3641;49.082;8.200;2022-08-03T01:47:57;5.68;;;3.60;;
7199;SDS011;3641;49.082;8.200;2022-08-03T01:50:26;6.25;;;3.90;;
7199;SDS011;3641;49.082;8.200;2022-08-03T01:52:54;6.28;;;3.55;;
7199;SDS011;3641;49.082;8.200;2022-08-03T01:55:23;8.43;;;3.90;;
7199;SDS011;3641;49.082;8.200;2022-08-03T01:57:52;7.90;;;3.70;;
7199;SDS011;3641;49.082;8.200;2022-08-03T02:00:20;6.20;;;3.65;;
7199;SDS011;3641;49.082;8.200;2022-08-03T02:02:50;5.80;;;3.85;;
7199;SDS011;3641;49.082;8.200;2022-08-03T02:05:19;7.28;;;4.30;;
7199;SDS011;3641;49.082;8.200;2022-08-03T02:07:46;5.60;;;4.55;;
7199;SDS011;3641;49.082;8.200;2022-08-03T02:10:14;5.38;;;4.03;;
7199;SDS011;3641;49.082;8.200;2022-08-03T02:12:44;6.00;;;3.60;;
7199;SDS011;3641;49.082;8.200;2022-08-03T02:15:14;7.55;;;3.70;;
7199;SDS011;3641;49.082;8.200;2022-08-03T02:17:41;9.57;;;4.95;;
7199;SDS011;3641;49.082;8.200;2022-08-03T02:20:12;5.07;;;4.07;;
7199;SDS011;3641;49.082;8.200;2022-08-03T02:22:39;5.75;;;3.72;;
7199;SDS011;3641;49.082;8.200;2022-08-03T02:25:07;6.03;;;3.80;;
7199;SDS011;3641;49.082;8.200;2022-08-03T02:27:36;6.45;;;3.58;;
7199;SDS011;3641;49.082;8.200;2022-08-03T02:30:04;5.38;;;3.70;;
7199;SDS011;3641;49.082;8.200;2022-08-03T02:32:34;4.95;;;4.00;;
7199;SDS011;3641;49.082;8.200;2022-08-03T02:35:03;5.38;;;3.40;;
7199;SDS011;3641;49.082;8.200;2022-08-03T02:37:36;5.28;;;3.70;;
7199;SDS011;3641;49.082;8.200;2022-08-03T02:40:08;5.32;;;3.47;;
7199;SDS011;3641;49.082;8.200;2022-08-03T02:42:37;6.03;;;3.70;;
7199;SDS011;3641;49.082;8.200;2022-08-03T02:45:06;5.47;;;3.70;;
7199;SDS011;3641;49.082;8.200;2022-08-03T02:47:38;4.32;;;3.80;;
7199;SDS011;3641;49.082;8.200;2022-08-03T02:50:07;5.38;;;3.80;;
7199;SDS011;3641;49.082;8.200;2022-08-03T02:52:37;6.05;;;3.63;;
7199;SDS011;3641;49.082;8.200;2022-08-03T02:55:07;7.20;;;4.22;;
7199;SDS011;3641;49.082;8.200;2022-08-03T02:57:35;5.13;;;4.00;;
7199;SDS011;3641;49.082;8.200;2022-08-03T03:00:04;8.10;;;4.32;;
7199;SDS011;3641;49.082;8.200;2022-08-03T03:02:33;5.95;;;3.92;;
7199;SDS011;3641;49.082;8.200;2022-08-03T03:05:02;7.10;;;4.15;;
7199;SDS011;3641;49.082;8.200;2022-08-03T03:07:29;5.53;;;3.95;;
7199;SDS011;3641;49.082;8.200;2022-08-03T03:09:58;7.38;;;4.20;;
7199;SDS011;3641;49.082;8.200;2022-08-03T03:12:26;6.10;;;4.07;;
7199;SDS011;3641;49.082;8.200;2022-08-03T03:14:54;9.98;;;4.05;;
7199;SDS011;3641;49.082;8.200;2022-08-03T03:17:21;7.43;;;4.10;;
7199;SDS011;3641;49.082;8.200;2022-08-03T03:19:49;7.13;;;3.95;;
7199;SDS011;3641;49.082;8.200;2022-08-03T03:22:16;8.75;;;4.60;;
7199;SDS011;3641;49.082;8.200;2022-08-03T03:24:44;9.05;;;4.65;;
7199;SDS011;3641;49.082;8.200;2022-08-03T03:27:14;7.63;;;4.40;;
7199;SDS011;3641;49.082;8.200;2022-08-03T03:29:41;6.25;;;4.60;;
7199;SDS011;3641;49.082;8.200;2022-08-03T03:32:07;7.55;;;4.75;;
7199;SDS011;3641;49.082;8.200;2022-08-03T03:34:34;6.55;;;4.47;;
7199;SDS011;3641;49.082;8.200;2022-08-03T03:37:01;7.75;;;4.28;;
7199;SDS011;3641;49.082;8.200;2022-08-03T03:39:27;7.78;;;4.53;;
7199;SDS011;3641;49.082;8.200;2022-08-03T03:41:54;6.03;;;4.10;;
7199;SDS011;3641;49.082;8.200;2022-08-03T03:44:22;5.82;;;4.03;;
7199;SDS011;3641;49.082;8.200;2022-08-03T03:46:51;6.05;;;4.45;;
7199;SDS011;3641;49.082;8.200;2022-08-03T03:49:18;5.85;;;4.10;;
7199;SDS011;3641;49.082;8.200;2022-08-03T03:51:45;7.68;;;4.18;;
7199;SDS011;3641;49.082;8.200;2022-08-03T03:54:11;6.78;;;4.30;;
7199;SDS011;3641;49.082;8.200;2022-08-03T03:56:38;5.65;;;4.47;;
7199;SDS011;3641;49.082;8.200;2022-08-03T03:59:04;6.15;;;4.50;;
7199;SDS011;3641;49.082;8.200;2022-08-03T04:01:32;9.50;;;4.20;;
7199;SDS011;3641;49.082;8.200;2022-08-03T04:03:59;7.10;;;4.32;;
7199;SDS011;3641;49.082;8.200;2022-08-03T04:06:46;15.15;;;4.40;;
7199;SDS011;3641;49.082;8.200;2022-08-03T04:09:30;7.03;;;4.28;;
7199;SDS011;3641;49.082;8.200;2022-08-03T04:12:17;7.32;;;4.57;;
7199;SDS011;3641;49.082;8.200;2022-08-03T04:14:46;8.82;;;3.63;;
7199;SDS011;3641;49.082;8.200;2022-08-03T04:17:15;8.63;;;4.00;;
7199;SDS011;3641;49.082;8.200;2022-08-03T04:19:44;4.85;;;4.20;;
7199;SDS011;3641;49.082;8.200;2022-08-03T04:22:14;6.20;;;4.68;;
7199;SDS011;3641;49.082;8.200;2022-08-03T04:24:45;6.35;;;4.05;;
7199;SDS011;3641;49.082;8.200;2022-08-03T04:27:15;8.25;;;4.60;;
7199;SDS011;3641;49.082;8.200;2022-08-03T04:29:46;6.28;;;4.30;;
7199;SDS011;3641;49.082;8.200;2022-08-03T04:32:18;4.97;;;3.63;;
7199;SDS011;3641;49.082;8.200;2022-08-03T04:34:47;6.07;;;4.00;;
7199;SDS011;3641;49.082;8.200;2022-08-03T04:37:16;6.25;;;4.40;;
7199;SDS011;3641;49.082;8.200;2022-08-03T04:39:48;6.57;;;4.88;;
7199;SDS011;3641;49.082;8.200;2022-08-03T04:42:15;7.30;;;4.03;;
7199;SDS011;3641;49.082;8.200;2022-08-03T04:44:46;6.40;;;4.30;;
7199;SDS011;3641;49.082;8.200;2022-08-03T04:47:14;11.20;;;4.30;;
7199;SDS011;3641;49.082;8.200;2022-08-03T04:49:42;7.47;;;4.32;;
7199;SDS011;3641;49.082;8.200;2022-08-03T04:52:09;6.72;;;4.18;;
7199;SDS011;3641;49.082;8.200;2022-08-03T04:54:39;6.95;;;3.80;;
7199;SDS011;3641;49.082;8.200;2022-08-03T04:57:06;5.22;;;3.75;;
7199;SDS011;3641;49.082;8.200;2022-08-03T04:59:33;8.38;;;4.07;;
7199;SDS011;3641;49.082;8.200;2022-08-03T05:01:59;5.40;;;3.95;;
7199;SDS011;3641;49.082;8.200;2022-08-03T05:04:26;6.88;;;3.90;;
7199;SDS011;3641;49.082;8.200;2022-08-03T05:06:54;5.65;;;3.90;;
7199;SDS011;3641;49.082;8.200;2022-08-03T05:09:20;8.23;;;3.80;;
7199;SDS011;3641;49.082;8.200;2022-08-03T05:11:47;5.80;;;4.18;;
7199;SDS011;3641;49.082;8.200;2022-08-03T05:14:14;6.88;;;4.13;;
7199;SDS011;3641;49.082;8.200;2022-08-03T05:16:40;11.68;;;4.03;;
7199;SDS011;3641;49.082;8.200;2022-08-03T05:19:07;5.97;;;4.03;;
7199;SDS011;3641;49.082;8.200;2022-08-03T05:21:33;7.30;;;3.95;;
7199;SDS011;3641;49.082;8.200;2022-08-03T05:24:01;5.25;;;3.97;;
7199;SDS011;3641;49.082;8.200;2022-08-03T05:26:28;6.40;;;4.05;;
7199;SDS011;3641;49.082;8.200;2022-08-03T05:28:54;6.68;;;3.78;;
7199;SDS011;3641;49.082;8.200;2022-08-03T05:31:21;7.13;;;3.78;;
7199;SDS011;3641;49.082;8.200;2022-08-03T05:33:47;6.20;;;3.67;;
7199;SDS011;3641;49.082;8.200;2022-08-03T05:36:14;7.05;;;3.92;;
7199;SDS011;3641;49.082;8.200;2022-08-03T05:38:41;6.95;;;4.03;;
7199;SDS011;3641;49.082;8.200;2022-08-03T05:41:09;5.70;;;3.50;;
7199;SDS011;3641;49.082;8.200;2022-08-03T05:43:35;5.00;;;3.45;;
7199;SDS011;3641;49.082;8.200;2022-08-03T05:46:02;5.97;;;3.78;;
7199;SDS011;3641;49.082;8.200;2022-08-03T05:48:28;6.72;;;3.45;;
7199;SDS011;3641;49.082;8.200;2022-08-03T05:50:55;4.97;;;3.30;;
7199;SDS011;3641;49.082;8.200;2022-08-03T05:53:21;4.82;;;3.08;;
7199;SDS011;3641;49.082;8.200;2022-08-03T05:55:48;6.68;;;3.45;;
7199;SDS011;3641;49.082;8.200;2022-08-03T05:58:15;7.38;;;3.97;;
7199;SDS011;3641;49.082;8.200;2022-08-03T06:00:42;10.77;;;3.58;;
7199;SDS011;3641;49.082;8.200;2022-08-03T06:03:08;11.05;;;3.50;;
7199;SDS011;3641;49.082;8.200;2022-08-03T06:05:35;5.70;;;3.40;;
7199;SDS011;3641;49.082;8.200;2022-08-03T06:08:03;5.72;;;3.20;;
7199;SDS011;3641;49.082;8.200;2022-08-03T06:10:29;10.23;;;3.13;;
7199;SDS011;3641;49.082;8.200;2022-08-03T06:12:56;8.73;;;3.45;;
7199;SDS011;3641;49.082;8.200;2022-08-03T06:15:24;9.15;;;3.42;;
7199;SDS011;3641;49.082;8.200;2022-08-03T06:17:50;7.40;;;3.00;;
7199;SDS011;3641;49.082;8.200;2022-08-03T06:20:18;4.10;;;2.65;;
7199;SDS011;3641;49.082;8.200;2022-08-03T06:22:46;5.30;;;3.08;;
7199;SDS011;3641;49.082;8.200;2022-08-03T06:25:13;6.07;;;3.00;;
7199;SDS011;3641;49.082;8.200;2022-08-03T06:27:40;6.75;;;3.30;;
7199;SDS011;3641;49.082;8.200;2022-08-03T06:30:07;6.80;;;3.05;;
7199;SDS011;3641;49.082;8.200;2022-08-03T06:32:37;6.32;;;3.05;;
7199;SDS011;3641;49.082;8.200;2022-08-03T06:35:03;4.55;;;2.97;;
7199;SDS011;3641;49.082;8.200;2022-08-03T06:37:31;6.72;;;3.70;;
7199;SDS011;3641;49.082;8.200;2022-08-03T06:39:58;6.47;;;3.30;;
7199;SDS011;3641;49.082;8.200;2022-08-03T06:42:24;5.40;;;2.90;;
7199;SDS011;3641;49.082;8.200;2022-08-03T06:44:51;7.18;;;3.33;;
7199;SDS011;3641;49.082;8.200;2022-08-03T06:47:17;12.15;;;3.88;;
7199;SDS011;3641;49.082;8.200;2022-08-03T06:49:45;5.22;;;3.20;;
7199;SDS011;3641;49.082;8.200;2022-08-03T06:52:11;7.05;;;2.90;;
7199;SDS011;3641;49.082;8.200;2022-08-03T06:54:38;4.75;;;2.85;;
7199;SDS011;3641;49.082;8.200;2022-08-03T06:57:04;4.22;;;2.58;;
7199;SDS011;3641;49.082;8.200;2022-08-03T06:59:32;5.60;;;3.30;;
7199;SDS011;3641;49.082;8.200;2022-08-03T07:01:58;7.32;;;2.70;;
7199;SDS011;3641;49.082;8.200;2022-08-03T07:04:25;11.73;;;3.10;;
7199;SDS011;3641;49.082;8.200;2022-08-03T07:06:53;7.32;;;3.40;;
7199;SDS011;3641;49.082;8.200;2022-08-03T07:09:20;4.72;;;3.10;;
7199;SDS011;3641;49.082;8.200;2022-08-03T07:11:46;5.53;;;2.92;;
7199;SDS011;3641;49.082;8.200;2022-08-03T07:14:13;3.50;;;2.50;;
7199;SDS011;3641;49.082;8.200;2022-08-03T07:16:39;5.25;;;3.00;;
7199;SDS011;3641;49.082;8.200;2022-08-03T07:19:06;7.25;;;2.65;;
7199;SDS011;3641;49.082;8.200;2022-08-03T07:21:32;4.38;;;2.90;;
7199;SDS011;3641;49.082;8.200;2022-08-03T07:24:00;5.38;;;2.78;;
7199;SDS011;3641;49.082;8.200;2022-08-03T07:26:27;8.07;;;2.78;;
7199;SDS011;3641;49.082;8.200;2022-08-03T07:28:54;4.93;;;2.70;;
7199;SDS011;3641;49.082;8.200;2022-08-03T07:31:20;6.75;;;2.65;;
7199;SDS011;3641;49.082;8.200;2022-08-03T07:33:47;10.80;;;3.00;;
7199;SDS011;3641;49.082;8.200;2022-08-03T07:36:13;4.43;;;2.72;;
7199;SDS011;3641;49.082;8.200;2022-08-03T07:38:40;7.90;;;2.80;;
7199;SDS011;3641;49.082;8.200;2022-08-03T07:41:07;7.03;;;2.65;;
7199;SDS011;3641;49.082;8.200;2022-08-03T07:43:34;8.15;;;2.50;;
7199;SDS011;3641;49.082;8.200;2022-08-03T07:46:01;6.03;;;2.70;;
7199;SDS011;3641;49.082;8.200;2022-08-03T07:48:27;8.70;;;2.53;;
7199;SDS011;3641;49.082;8.200;2022-08-03T07:50:54;3.80;;;2.35;;
7199;SDS011;3641;49.082;8.200;2022-08-03T07:53:20;6.72;;;2.67;;
7199;SDS011;3641;49.082;8.200;2022-08-03T07:55:47;9.43;;;2.83;;
7199;SDS011;3641;49.082;8.200;2022-08-03T07:58:14;5.53;;;2.88;;
7199;SDS011;3641;49.082;8.200;2022-08-03T08:00:42;5.47;;;2.95;;
7199;SDS011;3641;49.082;8.200;2022-08-03T08:03:09;3.20;;;2.35;;
7199;SDS011;3641;49.082;8.200;2022-08-03T08:05:36;4.00;;;2.47;;
7199;SDS011;3641;49.082;8.200;2022-08-03T08:08:03;3.85;;;2.50;;
7199;SDS011;3641;49.082;8.200;2022-08-03T08:10:30;8.25;;;2.90;;
7199;SDS011;3641;49.082;8.200;2022-08-03T08:12:57;3.92;;;2.53;;
7199;SDS011;3641;49.082;8.200;2022-08-03T08:15:25;8.82;;;2.75;;
7199;SDS011;3641;49.082;8.200;2022-08-03T08:17:53;6.55;;;2.55;;
7199;SDS011;3641;49.082;8.200;2022-08-03T08:20:26;6.03;;;2.78;;
7199;SDS011;3641;49.082;8.200;2022-08-03T08:22:55;4.93;;;3.13;;
7199;SDS011;3641;49.082;8.200;2022-08-03T08:25:23;6.45;;;2.60;;
7199;SDS011;3641;49.082;8.200;2022-08-03T08:27:49;4.85;;;2.33;;
7199;SDS011;3641;49.082;8.200;2022-08-03T08:30:16;5.03;;;2.50;;
7199;SDS011;3641;49.082;8.200;2022-08-03T08:32:46;4.00;;;2.60;;
7199;SDS011;3641;49.082;8.200;2022-08-03T08:35:12;9.95;;;2.58;;
7199;SDS011;3641;49.082;8.200;2022-08-03T08:37:39;5.65;;;2.85;;
7199;SDS011;3641;49.082;8.200;2022-08-03T08:40:07;8.13;;;2.90;;
7199;SDS011;3641;49.082;8.200;2022-08-03T08:42:35;5.13;;;2.45;;
7199;SDS011;3641;49.082;8.200;2022-08-03T08:45:02;5.28;;;2.60;;
7199;SDS011;3641;49.082;8.200;2022-08-03T08:47:30;5.70;;;2.83;;
7199;SDS011;3641;49.082;8.200;2022-08-03T08:49:59;3.30;;;2.42;;
7199;SDS011;3641;49.082;8.200;2022-08-03T08:52:27;3.95;;;2.42;;
7199;SDS011;3641;49.082;8.200;2022-08-03T08:54:56;6.15;;;2.80;;
7199;SDS011;3641;49.082;8.200;2022-08-03T08:57:25;7.38;;;2.85;;
7199;SDS011;3641;49.082;8.200;2022-08-03T08:59:54;5.00;;;2.58;;
7199;SDS011;3641;49.082;8.200;2022-08-03T09:02:21;5.03;;;2.40;;
7199;SDS011;3641;49.082;8.200;2022-08-03T09:04:48;4.10;;;2.47;;
7199;SDS011;3641;49.082;8.200;2022-08-03T09:07:17;5.43;;;2.45;;
7199;SDS011;3641;49.082;8.200;2022-08-03T09:09:43;4.88;;;2.97;;
7199;SDS011;3641;49.082;8.200;2022-08-03T09:12:10;6.18;;;2.80;;
7199;SDS011;3641;49.082;8.200;2022-08-03T09:14:36;5.45;;;2.40;;
7199;SDS011;3641;49.082;8.200;2022-08-03T09:17:03;5.78;;;2.47;;
7199;SDS011;3641;49.082;8.200;2022-08-03T09:19:30;4.80;;;2.58;;
7199;SDS011;3641;49.082;8.200;2022-08-03T09:22:10;10.20;;;2.90;;
7199;SDS011;3641;49.082;8.200;2022-08-03T09:24:52;6.07;;;2.85;;
7199;SDS011;3641;49.082;8.200;2022-08-03T09:27:20;5.13;;;2.50;;
7199;SDS011;3641;49.082;8.200;2022-08-03T09:29:47;4.15;;;2.33;;
7199;SDS011;3641;49.082;8.200;2022-08-03T09:32:14;4.57;;;2.50;;
7199;SDS011;3641;49.082;8.200;2022-08-03T09:34:45;3.92;;;2.20;;
7199;SDS011;3641;49.082;8.200;2022-08-03T09:37:13;3.47;;;2.47;;
7199;SDS011;3641;49.082;8.200;2022-08-03T09:39:41;4.68;;;2.67;;
7199;SDS011;3641;49.082;8.200;2022-08-03T09:42:09;3.42;;;2.30;;
7199;SDS011;3641;49.082;8.200;2022-08-03T09:44:37;7.10;;;2.67;;
7199;SDS011;3641;49.082;8.200;2022-08-03T09:47:06;4.07;;;2.30;;
7199;SDS011;3641;49.082;8.200;2022-08-03T09:49:34;5.28;;;2.42;;
7199;SDS011;3641;49.082;8.200;2022-08-03T09:52:01;2.80;;;2.08;;
7199;SDS011;3641;49.082;8.200;2022-08-03T09:54:37;7.05;;;2.47;;
7199;SDS011;3641;49.082;8.200;2022-08-03T09:57:06;4.70;;;2.50;;
7199;SDS011;3641;49.082;8.200;2022-08-03T09:59:33;4.82;;;2.38;;
7199;SDS011;3641;49.082;8.200;2022-08-03T10:02:00;4.63;;;2.50;;
7199;SDS011;3641;49.082;8.200;2022-08-03T10:04:27;4.38;;;2.58;;
7199;SDS011;3641;49.082;8.200;2022-08-03T10:07:00;6.65;;;2.47;;
7199;SDS011;3641;49.082;8.200;2022-08-03T10:09:28;4.72;;;2.53;;
7199;SDS011;3641;49.082;8.200;2022-08-03T10:11:55;6.00;;;2.30;;
7199;SDS011;3641;49.082;8.200;2022-08-03T10:14:23;6.05;;;2.17;;
7199;SDS011;3641;49.082;8.200;2022-08-03T10:16:54;3.78;;;2.15;;
7199;SDS011;3641;49.082;8.200;2022-08-03T10:19:20;3.60;;;1.88;;
7199;SDS011;3641;49.082;8.200;2022-08-03T10:21:49;4.13;;;2.17;;
7199;SDS011;3641;49.082;8.200;2022-08-03T10:24:23;3.95;;;2.00;;
7199;SDS011;3641;49.082;8.200;2022-08-03T10:26:51;8.35;;;2.03;;
7199;SDS011;3641;49.082;8.200;2022-08-03T10:29:23;4.28;;;2.00;;
7199;SDS011;3641;49.082;8.200;2022-08-03T10:31:53;4.03;;;2.05;;
7199;SDS011;3641;49.082;8.200;2022-08-03T10:34:24;3.55;;;1.90;;
7199;SDS011;3641;49.082;8.200;2022-08-03T10:36:55;3.95;;;2.13;;
7199;SDS011;3641;49.082;8.200;2022-08-03T10:39:24;4.03;;;2.40;;
7199;SDS011;3641;49.082;8.200;2022-08-03T10:41:54;3.63;;;2.30;;
7199;SDS011;3641;49.082;8.200;2022-08-03T10:44:25;4.93;;;2.33;;
7199;SDS011;3641;49.082;8.200;2022-08-03T10:46:55;4.40;;;2.20;;
7199;SDS011;3641;49.082;8.200;2022-08-03T10:49:22;3.22;;;2.20;;
7199;SDS011;3641;49.082;8.200;2022-08-03T10:51:49;4.88;;;2.05;;
7199;SDS011;3641;49.082;8.200;2022-08-03T11:00:13;3.45;;;2.10;;
7199;SDS011;3641;49.082;8.200;2022-08-03T11:05:39;3.17;;;2.15;;
7199;SDS011;3641;49.082;8.200;2022-08-03T11:08:22;4.93;;;2.13;;
7199;SDS011;3641;49.082;8.200;2022-08-03T11:10:55;10.70;;;2.17;;
7199;SDS011;3641;49.082;8.200;2022-08-03T11:13:24;4.53;;;2.10;;
7199;SDS011;3641;49.082;8.200;2022-08-03T11:15:56;6.60;;;2.42;;
7199;SDS011;3641;49.082;8.200;2022-08-03T11:18:25;4.47;;;2.05;;
7199;SDS011;3641;49.082;8.200;2022-08-03T11:20:52;5.38;;;1.85;;
7199;SDS011;3641;49.082;8.200;2022-08-03T11:26:12;6.75;;;1.98;;
7199;SDS011;3641;49.082;8.200;2022-08-03T11:28:40;2.92;;;1.88;;
7199;SDS011;3641;49.082;8.200;2022-08-03T11:34:22;7.03;;;2.20;;
7199;SDS011;3641;49.082;8.200;2022-08-03T11:39:49;6.15;;;2.25;;
7199;SDS011;3641;49.082;8.200;2022-08-03T11:45:08;3.83;;;2.20;;
7199;SDS011;3641;49.082;8.200;2022-08-03T11:47:36;8.85;;;2.33;;
7199;SDS011;3641;49.082;8.200;2022-08-03T11:50:08;5.65;;;2.30;;
7199;SDS011;3641;49.082;8.200;2022-08-03T11:52:36;3.25;;;2.15;;
7199;SDS011;3641;49.082;8.200;2022-08-03T11:55:12;2.97;;;2.15;;
7199;SDS011;3641;49.082;8.200;2022-08-03T11:57:40;4.55;;;2.25;;
7199;SDS011;3641;49.082;8.200;2022-08-03T12:00:23;4.55;;;2.00;;
7199;SDS011;3641;49.082;8.200;2022-08-03T12:03:00;5.80;;;2.20;;
7199;SDS011;3641;49.082;8.200;2022-08-03T12:05:34;3.50;;;2.00;;
7199;SDS011;3641;49.082;8.200;2022-08-03T12:08:02;6.47;;;2.10;;
7199;SDS011;3641;49.082;8.200;2022-08-03T12:10:29;3.47;;;2.20;;
7199;SDS011;3641;49.082;8.200;2022-08-03T12:12:57;7.00;;;2.40;;
7199;SDS011;3641;49.082;8.200;2022-08-03T12:15:25;2.20;;;1.70;;
7199;SDS011;3641;49.082;8.200;2022-08-03T12:17:52;3.75;;;2.20;;
7199;SDS011;3641;49.082;8.200;2022-08-03T12:20:20;4.93;;;2.08;;
7199;SDS011;3641;49.082;8.200;2022-08-03T12:22:49;4.63;;;2.40;;
7199;SDS011;3641;49.082;8.200;2022-08-03T12:25:20;5.35;;;2.08;;
7199;SDS011;3641;49.082;8.200;2022-08-03T12:27:48;5.88;;;2.15;;
7199;SDS011;3641;49.082;8.200;2022-08-03T12:30:15;5.07;;;2.45;;
7199;SDS011;3641;49.082;8.200;2022-08-03T12:32:42;4.10;;;2.22;;
7199;SDS011;3641;49.082;8.200;2022-08-03T12:35:09;4.53;;;2.17;;
7199;SDS011;3641;49.082;8.200;2022-08-03T12:37:36;2.97;;;1.92;;
7199;SDS011;3641;49.082;8.200;2022-08-03T12:40:04;4.50;;;1.98;;
7199;SDS011;3641;49.082;8.200;2022-08-03T12:42:31;5.35;;;1.73;;
7199;SDS011;3641;49.082;8.200;2022-08-03T12:44:59;5.20;;;1.92;;
7199;SDS011;3641;49.082;8.200;2022-08-03T12:47:25;3.78;;;1.88;;
7199;SDS011;3641;49.082;8.200;2022-08-03T12:49:52;2.30;;;1.75;;
7199;SDS011;3641;49.082;8.200;2022-08-03T12:52:19;3.90;;;2.00;;
7199;SDS011;3641;49.082;8.200;2022-08-03T12:54:53;3.75;;;1.90;;
7199;SDS011;3641;49.082;8.200;2022-08-03T12:57:21;3.78;;;1.77;;
7199;SDS011;3641;49.082;8.200;2022-08-03T12:59:48;2.80;;;2.00;;
7199;SDS011;3641;49.082;8.200;2022-08-03T13:02:18;3.25;;;1.90;;
7199;SDS011;3641;49.082;8.200;2022-08-03T13:04:46;3.13;;;1.63;;
7199;SDS011;3641;49.082;8.200;2022-08-03T13:07:14;3.80;;;1.70;;
7199;SDS011;3641;49.082;8.200;2022-08-03T13:09:42;2.88;;;2.00;;
7199;SDS011;3641;49.082;8.200;2022-08-03T13:12:10;3.88;;;1.73;;
7199;SDS011;3641;49.082;8.200;2022-08-03T13:14:39;2.00;;;1.40;;
7199;SDS011;3641;49.082;8.200;2022-08-03T13:17:06;2.53;;;1.48;;
7199;SDS011;3641;49.082;8.200;2022-08-03T13:19:33;4.43;;;1.83;;
7199;SDS011;3641;49.082;8.200;2022-08-03T13:22:09;2.03;;;1.50;;
7199;SDS011;3641;49.082;8.200;2022-08-03T13:24:37;2.97;;;1.70;;
7199;SDS011;3641;49.082;8.200;2022-08-03T13:27:03;2.80;;;1.50;;
7199;SDS011;3641;49.082;8.200;2022-08-03T13:29:31;2.05;;;1.52;;
7199;SDS011;3641;49.082;8.200;2022-08-03T13:31:59;5.00;;;1.90;;
7199;SDS011;3641;49.082;8.200;2022-08-03T13:34:25;3.60;;;1.67;;
7199;SDS011;3641;49.082;8.200;2022-08-03T13:36:52;4.80;;;1.52;;
7199;SDS011;3641;49.082;8.200;2022-08-03T13:39:19;4.22;;;1.70;;
7199;SDS011;3641;49.082;8.200;2022-08-03T13:41:45;3.17;;;1.88;;
7199;SDS011;3641;49.082;8.200;2022-08-03T13:44:12;1.85;;;1.50;;
7199;SDS011;3641;49.082;8.200;2022-08-03T13:46:39;4.10;;;1.60;;
7199;SDS011;3641;49.082;8.200;2022-08-03T13:49:07;2.72;;;1.60;;
7199;SDS011;3641;49.082;8.200;2022-08-03T13:51:33;4.03;;;1.70;;
7199;SDS011;3641;49.082;8.200;2022-08-03T13:54:00;3.83;;;1.55;;
7199;SDS011;3641;49.082;8.200;2022-08-03T13:56:26;3.20;;;1.77;;
7199;SDS011;3641;49.082;8.200;2022-08-03T13:58:53;3.30;;;1.60;;
7199;SDS011;3641;49.082;8.200;2022-08-03T14:01:20;3.15;;;1.70;;
7199;SDS011;3641;49.082;8.200;2022-08-03T14:03:47;4.35;;;1.88;;
7199;SDS011;3641;49.082;8.200;2022-08-03T14:06:17;2.88;;;1.83;;
7199;SDS011;3641;49.082;8.200;2022-08-03T14:08:44;3.20;;;1.70;;
7199;SDS011;3641;49.082;8.200;2022-08-03T14:11:12;3.15;;;1.92;;
7199;SDS011;3641;49.082;8.200;2022-08-03T14:13:38;2.83;;;1.90;;
7199;SDS011;3641;49.082;8.200;2022-08-03T14:16:05;2.65;;;1.65;;
7199;SDS011;3641;49.082;8.200;2022-08-03T14:18:31;2.50;;;1.83;;
7199;SDS011;3641;49.082;8.200;2022-08-03T14:20:58;3.15;;;2.00;;
7199;SDS011;3641;49.082;8.200;2022-08-03T14:23:27;4.57;;;2.00;;
7199;SDS011;3641;49.082;8.200;2022-08-03T14:25:54;3.97;;;1.95;;
7199;SDS011;3641;49.082;8.200;2022-08-03T14:28:21;3.97;;;2.25;;
7199;SDS011;3641;49.082;8.200;2022-08-03T14:30:48;3.60;;;1.95;;
7199;SDS011;3641;49.082;8.200;2022-08-03T14:33:15;3.42;;;2.00;;
7199;SDS011;3641;49.082;8.200;2022-08-03T14:35:41;3.75;;;1.90;;
7199;SDS011;3641;49.082;8.200;2022-08-03T14:38:08;3.53;;;1.88;;
7199;SDS011;3641;49.082;8.200;2022-08-03T14:40:36;4.43;;;2.13;;
7199;SDS011;3641;49.082;8.200;2022-08-03T14:43:02;4.05;;;1.80;;
7199;SDS011;3641;49.082;8.200;2022-08-03T14:45:29;2.60;;;1.70;;
7199;SDS011;3641;49.082;8.200;2022-08-03T14:47:55;2.60;;;1.95;;
7199;SDS011;3641;49.082;8.200;2022-08-03T14:50:24;3.92;;;1.98;;
7199;SDS011;3641;49.082;8.200;2022-08-03T14:52:52;5.30;;;2.00;;
7199;SDS011;3641;49.082;8.200;2022-08-03T14:55:18;2.88;;;1.90;;
7199;SDS011;3641;49.082;8.200;2022-08-03T14:57:46;3.55;;;1.70;;
7199;SDS011;3641;49.082;8.200;2022-08-03T15:00:13;3.13;;;1.90;;
7199;SDS011;3641;49.082;8.200;2022-08-03T15:02:40;2.65;;;1.70;;
7199;SDS011;3641;49.082;8.200;2022-08-03T15:05:07;3.65;;;2.05;;
7199;SDS011;3641;49.082;8.200;2022-08-03T15:07:36;2.70;;;1.85;;
7199;SDS011;3641;49.082;8.200;2022-08-03T15:10:03;5.30;;;1.90;;
7199;SDS011;3641;49.082;8.200;2022-08-03T15:12:30;4.00;;;2.20;;
7199;SDS011;3641;49.082;8.200;2022-08-03T15:14:58;2.80;;;1.92;;
7199;SDS011;3641;49.082;8.200;2022-08-03T15:17:24;4.50;;;2.03;;
7199;SDS011;3641;49.082;8.200;2022-08-03T15:19:51;2.38;;;1.88;;
7199;SDS011;3641;49.082;8.200;2022-08-03T15:22:17;2.30;;;2.08;;
7199;SDS011;3641;49.082;8.200;2022-08-03T15:24:44;5.45;;;2.38;;
7199;SDS011;3641;49.082;8.200;2022-08-03T15:27:10;2.90;;;2.03;;
7199;SDS011;3641;49.082;8.200;2022-08-03T15:29:37;3.75;;;2.03;;
7199;SDS011;3641;49.082;8.200;2022-08-03T15:32:05;2.13;;;1.77;;
7199;SDS011;3641;49.082;8.200;2022-08-03T15:34:31;5.30;;;2.13;;
7199;SDS011;3641;49.082;8.200;2022-08-03T15:36:58;8.43;;;2.47;;
7199;SDS011;3641;49.082;8.200;2022-08-03T15:39:24;4.78;;;2.10;;
7199;SDS011;3641;49.082;8.200;2022-08-03T15:41:51;3.70;;;2.10;;